Viking Amber — 9V7985 — position and weather

sailwx.info

Track history (hours):
 
Tides and Currents Weather Stations Pressure Air Temp Water Temp Dewpoint Dewpoint Depression Visibility Wind Speed Wind Dir Waves Ship Positions

Viking Amber

Last reported at 2016-Jan-31 19:07 UTC. Time now 2016-Feb-11 23:25 UTC.
Position N 35°23' E 140°53'.
Warning: this ship's position is 11 days out of date.

Length 167 m; draft 7.9 m.

Type: Other ship. MMSI: 563255000.

Date/timePositionNaut miles runAvg speedWind from/ knotsBaromVisibWave heightAir tempDewpointWater temp
2016-Jan-31 19:07N 35°23' E 140°53'1014.7
2016-Jan-31 18:26N 35°16' E 140°44'1415.6
2016-Jan-31 17:32N 35°07' E 140°31'1515.3
2016-Jan-31 16:31N 34°56' E 140°17'1715.2
2016-Jan-31 15:26N 34°46' E 140°01'2115.5
2016-Jan-31 14:05N 34°38' E 139°38'26 0.6
2016-Jan-29 20:11N 35°04' E 139°39'915.1
2016-Jan-29 19:33N 35°12' E 139°46'1212.2
2016-Jan-29 18:33N 35°23' E 139°42'5 4.7
2016-Jan-29 17:31N 35°28' E 139°41'0 0.0
2016-Jan-29 16:31N 35°28' E 139°41'0 0.0
2016-Jan-29 15:32N 35°28' E 139°41'0 0.0
2016-Jan-29 14:31N 35°28' E 139°41'0 0.0
2016-Jan-29 13:32N 35°28' E 139°41'0 0.0
2016-Jan-29 12:31N 35°28' E 139°41'0 0.0
2016-Jan-29 11:31N 35°28' E 139°41'0 0.0
2016-Jan-29 10:31N 35°28' E 139°41'0 0.0
2016-Jan-29 09:31N 35°28' E 139°41'0 0.0
2016-Jan-29 08:32N 35°28' E 139°41'0 0.0
2016-Jan-29 07:31N 35°28' E 139°41'0 0.0
2016-Jan-29 06:31N 35°28' E 139°41'0 0.0
2016-Jan-29 05:28N 35°28' E 139°41'0 0.0
2016-Jan-29 04:28N 35°28' E 139°41'0 0.0
2016-Jan-29 03:31N 35°28' E 139°41'0 0.0
2016-Jan-29 02:31N 35°28' E 139°41'0 0.0
2016-Jan-29 01:31N 35°28' E 139°41'0 0.0
2016-Jan-29 00:31N 35°28' E 139°41'0 0.0
2016-Jan-28 23:31N 35°28' E 139°41'0 0.0
2016-Jan-28 22:33N 35°28' E 139°41'3 3.0
2016-Jan-28 21:33N 35°26' E 139°44'9 9.2
2016-Jan-28 20:33N 35°17' E 139°45'1111.2
2016-Jan-28 19:33N 35°06' E 139°45'1811.9
2016-Jan-28 18:03N 34°55' E 139°28'712.1
2016-Jan-28 17:28N 34°51' E 139°21'223 7.6
2016-Jan-27 12:14N 33°59' E 134°58'1217.5
2016-Jan-27 11:33N 34°11' E 134°58'1515.2
2016-Jan-27 10:32N 34°26' E 135°02'10 9.8
2016-Jan-27 09:33N 34°35' E 135°04'10 9.8
2016-Jan-27 08:31N 34°38' E 134°52'4 0.4
2016-Jan-26 23:09N 34°41' E 134°50'  
Track history (hours):
 
Tides and Currents Weather Stations Pressure Air Temp Water Temp Dewpoint Dewpoint Depression Visibility Wind Speed Wind Dir Waves Ship Positions

Viking Amber

Last reported at 2016-Jan-31 19:07 UTC. Time now 2016-Feb-11 23:25 UTC.
Position N 35°23' E 140°53'.
Warning: this ship's position is 11 days out of date.

Length 167 m; draft 7.9 m.

Type: Other ship. MMSI: 563255000.

Date/timePositionNaut miles runAvg speedWind from/ knotsBaromVisibWave heightAir tempDewpointWater temp
2016-Jan-31 19:07N 35°23' E 140°53'1014.7
2016-Jan-31 18:26N 35°16' E 140°44'1415.6
2016-Jan-31 17:32N 35°07' E 140°31'1515.3
2016-Jan-31 16:31N 34°56' E 140°17'1715.2
2016-Jan-31 15:26N 34°46' E 140°01'2115.5
2016-Jan-31 14:05N 34°38' E 139°38'26 0.6
2016-Jan-29 20:11N 35°04' E 139°39'915.1
2016-Jan-29 19:33N 35°12' E 139°46'1212.2
2016-Jan-29 18:33N 35°23' E 139°42'5 4.7
2016-Jan-29 17:31N 35°28' E 139°41'0 0.0
2016-Jan-29 16:31N 35°28' E 139°41'0 0.0
2016-Jan-29 15:32N 35°28' E 139°41'0 0.0
2016-Jan-29 14:31N 35°28' E 139°41'0 0.0
2016-Jan-29 13:32N 35°28' E 139°41'0 0.0
2016-Jan-29 12:31N 35°28' E 139°41'0 0.0
2016-Jan-29 11:31N 35°28' E 139°41'0 0.0
2016-Jan-29 10:31N 35°28' E 139°41'0 0.0
2016-Jan-29 09:31N 35°28' E 139°41'0 0.0
2016-Jan-29 08:32N 35°28' E 139°41'0 0.0
2016-Jan-29 07:31N 35°28' E 139°41'0 0.0
2016-Jan-29 06:31N 35°28' E 139°41'0 0.0
2016-Jan-29 05:28N 35°28' E 139°41'0 0.0
2016-Jan-29 04:28N 35°28' E 139°41'0 0.0
2016-Jan-29 03:31N 35°28' E 139°41'0 0.0
2016-Jan-29 02:31N 35°28' E 139°41'0 0.0
2016-Jan-29 01:31N 35°28' E 139°41'0 0.0
2016-Jan-29 00:31N 35°28' E 139°41'0 0.0
2016-Jan-28 23:31N 35°28' E 139°41'0 0.0
2016-Jan-28 22:33N 35°28' E 139°41'3 3.0
2016-Jan-28 21:33N 35°26' E 139°44'9 9.2
2016-Jan-28 20:33N 35°17' E 139°45'1111.2
2016-Jan-28 19:33N 35°06' E 139°45'1811.9
2016-Jan-28 18:03N 34°55' E 139°28'712.1
2016-Jan-28 17:28N 34°51' E 139°21'223 7.6
2016-Jan-27 12:14N 33°59' E 134°58'1217.5
2016-Jan-27 11:33N 34°11' E 134°58'1515.2
2016-Jan-27 10:32N 34°26' E 135°02'10 9.8
2016-Jan-27 09:33N 34°35' E 135°04'10 9.8
2016-Jan-27 08:31N 34°38' E 134°52'4 0.4
2016-Jan-26 23:09N 34°41' E 134°50'  

Dump ship's entire track history